createdAt,value
2022-11-29T00:01:19.081Z,99.90
2022-11-29T00:03:46.977Z,99.90
2022-11-29T00:06:20.158Z,99.90
2022-11-29T00:08:48.128Z,99.90
2022-11-29T00:11:38.238Z,99.90
2022-11-29T00:14:06.422Z,99.90
2022-11-29T00:16:33.579Z,99.90
2022-11-29T00:19:00.558Z,99.90
2022-11-29T00:21:27.973Z,99.90
2022-11-29T00:23:54.873Z,99.90
2022-11-29T00:26:21.870Z,99.90
2022-11-29T00:28:48.748Z,99.90
2022-11-29T00:31:31.305Z,99.90
2022-11-29T00:33:59.842Z,99.90
2022-11-29T00:36:26.781Z,99.90
2022-11-29T00:38:53.731Z,99.90
2022-11-29T00:41:21.028Z,99.90
2022-11-29T00:43:48.134Z,99.90
2022-11-29T00:46:15.258Z,99.90
2022-11-29T00:48:42.287Z,99.90
2022-11-29T00:51:09.284Z,99.90
2022-11-29T00:53:36.894Z,99.90
2022-11-29T00:56:04.756Z,99.90
2022-11-29T00:58:35.195Z,99.90
2022-11-29T01:01:02.051Z,99.90
2022-11-29T01:03:28.971Z,99.90
2022-11-29T01:06:13.916Z,99.90
2022-11-29T01:08:42.265Z,99.90
2022-11-29T01:11:13.687Z,99.90
2022-11-29T01:13:41.485Z,99.90
2022-11-29T01:16:09.052Z,99.90
2022-11-29T01:18:36.762Z,99.90
2022-11-29T01:21:24.493Z,99.90
2022-11-29T01:23:52.922Z,99.90
2022-11-29T01:26:23.000Z,99.90
2022-11-29T01:28:51.790Z,99.90
2022-11-29T01:31:21.697Z,99.90
2022-11-29T01:33:49.003Z,99.90
2022-11-29T01:36:15.997Z,99.90
2022-11-29T01:38:43.112Z,99.90
2022-11-29T01:41:14.699Z,99.90
2022-11-29T01:44:12.355Z,99.90
2022-11-29T01:46:44.947Z,99.90
2022-11-29T01:49:13.402Z,99.90
2022-11-29T01:51:43.230Z,99.90
2022-11-29T01:54:12.044Z,99.90
2022-11-29T01:56:39.879Z,99.90
2022-11-29T01:59:14.542Z,99.90
2022-11-29T02:01:41.538Z,99.90
2022-11-29T02:04:08.931Z,99.90
2022-11-29T02:06:37.170Z,99.90
2022-11-29T02:09:05.070Z,99.90
2022-11-29T02:11:56.249Z,99.90
2022-11-29T02:14:45.231Z,99.90
2022-11-29T02:17:31.288Z,99.90
2022-11-29T02:20:07.146Z,99.90
2022-11-29T02:23:01.711Z,99.90
2022-11-29T02:25:47.306Z,99.90
2022-11-29T02:28:57.814Z,99.90
2022-11-29T02:31:42.707Z,99.90
2022-11-29T02:34:28.412Z,99.90
2022-11-29T02:37:11.816Z,99.90
2022-11-29T02:40:00.183Z,99.90
2022-11-29T02:42:27.000Z,99.90
2022-11-29T02:45:29.377Z,99.90
2022-11-29T02:48:28.155Z,99.90
2022-11-29T02:51:12.146Z,99.90
2022-11-29T02:54:04.033Z,99.90
2022-11-29T02:57:12.647Z,99.90
2022-11-29T02:59:46.505Z,99.90
2022-11-29T03:02:28.449Z,99.90
2022-11-29T03:05:07.952Z,99.90
2022-11-29T03:07:58.732Z,99.90
2022-11-29T03:10:32.151Z,99.90
2022-11-29T03:12:59.874Z,99.90
2022-11-29T03:16:03.600Z,99.90
2022-11-29T03:18:35.688Z,99.90
2022-11-29T03:21:19.576Z,99.90
2022-11-29T03:23:49.542Z,99.90
2022-11-29T03:26:38.252Z,99.90
2022-11-29T03:29:29.759Z,99.90
2022-11-29T03:32:16.923Z,99.90
2022-11-29T03:35:04.525Z,99.90
2022-11-29T03:38:02.246Z,99.90
2022-11-29T03:40:51.798Z,99.90
2022-11-29T03:43:23.571Z,99.90
2022-11-29T03:46:01.021Z,99.90
2022-11-29T03:48:31.817Z,99.90
2022-11-29T03:51:11.370Z,99.90
2022-11-29T03:53:57.001Z,99.90
2022-11-29T03:56:29.912Z,99.90
2022-11-29T03:59:27.655Z,99.90
2022-11-29T04:02:12.880Z,99.90
2022-11-29T04:05:07.802Z,99.90
2022-11-29T04:08:00.821Z,99.90
2022-11-29T04:10:50.436Z,99.90
2022-11-29T04:13:34.713Z,99.90
2022-11-29T04:16:39.867Z,99.90
2022-11-29T04:19:06.669Z,99.90
2022-11-29T04:22:08.327Z,99.90
2022-11-29T04:24:38.273Z,99.90
2022-11-29T04:27:31.064Z,99.90
2022-11-29T04:30:24.944Z,99.90
2022-11-29T04:33:29.858Z,99.90
2022-11-29T04:36:15.422Z,99.90
2022-11-29T04:38:51.631Z,99.90
2022-11-29T04:41:30.658Z,99.90
2022-11-29T04:44:00.505Z,99.90
2022-11-29T04:46:36.391Z,99.90
2022-11-29T04:49:37.187Z,99.90
2022-11-29T04:52:19.233Z,99.90
2022-11-29T04:55:04.676Z,99.90
2022-11-29T04:57:38.205Z,99.90
2022-11-29T05:00:09.882Z,99.90
2022-11-29T05:02:36.857Z,99.90
2022-11-29T05:05:21.729Z,99.90
2022-11-29T05:07:51.640Z,99.90
2022-11-29T05:10:49.917Z,99.90
2022-11-29T05:13:46.867Z,99.90
2022-11-29T05:16:29.062Z,99.90
2022-11-29T05:19:04.977Z,99.90
2022-11-29T05:21:56.273Z,99.90
2022-11-29T05:25:00.652Z,99.90
2022-11-29T05:27:58.173Z,99.90
2022-11-29T05:30:33.350Z,99.90
2022-11-29T05:33:18.783Z,99.90
2022-11-29T05:36:23.732Z,99.90
2022-11-29T05:38:59.436Z,99.90
2022-11-29T05:41:48.175Z,99.90
2022-11-29T05:44:52.508Z,99.90
2022-11-29T05:47:36.855Z,99.90
2022-11-29T05:50:06.704Z,99.90
2022-11-29T05:53:02.265Z,99.90
2022-11-29T05:56:06.501Z,99.90
2022-11-29T05:58:36.363Z,99.90
2022-11-29T06:01:26.047Z,99.90
2022-11-29T06:04:17.921Z,99.90
2022-11-29T06:07:19.366Z,99.90
2022-11-29T06:09:59.183Z,99.90
2022-11-29T06:12:31.033Z,99.90
2022-11-29T06:15:00.834Z,99.90
2022-11-29T06:17:52.776Z,99.90
2022-11-29T06:21:00.070Z,99.90
2022-11-29T06:23:43.898Z,99.90
2022-11-29T06:26:38.549Z,99.90
2022-11-29T06:29:25.403Z,99.90
2022-11-29T06:32:19.173Z,99.90
2022-11-29T06:35:05.271Z,99.90
2022-11-29T06:37:41.177Z,99.90
2022-11-29T06:40:14.382Z,99.90
2022-11-29T06:42:41.562Z,99.90
2022-11-29T06:45:12.506Z,99.90
2022-11-29T06:47:57.180Z,99.90
2022-11-29T06:51:01.433Z,99.90
2022-11-29T06:53:42.165Z,99.90
2022-11-29T06:56:43.479Z,99.90
2022-11-29T06:59:25.327Z,99.90
2022-11-29T07:01:56.198Z,99.90
2022-11-29T07:04:45.507Z,99.90
2022-11-29T07:07:18.628Z,99.90
2022-11-29T07:09:49.393Z,99.90
2022-11-29T07:12:17.701Z,99.90
2022-11-29T07:14:45.740Z,99.90
2022-11-29T07:17:40.201Z,99.90
2022-11-29T07:20:23.423Z,99.90
2022-11-29T07:22:56.340Z,99.90
2022-11-29T07:25:38.482Z,99.90
2022-11-29T07:28:28.066Z,99.90
2022-11-29T07:31:13.329Z,99.90
2022-11-29T07:33:58.116Z,99.90
2022-11-29T07:36:39.200Z,99.90
2022-11-29T07:39:12.062Z,99.90
2022-11-29T07:42:12.090Z,99.90
2022-11-29T07:45:10.730Z,99.90
2022-11-29T07:47:37.609Z,99.90
2022-11-29T07:50:04.929Z,99.90
2022-11-29T07:52:32.124Z,99.90
2022-11-29T07:54:59.065Z,99.90
2022-11-29T07:57:25.942Z,99.90
2022-11-29T07:59:52.805Z,99.90
2022-11-29T08:02:30.818Z,99.90
2022-11-29T08:04:59.298Z,99.90
2022-11-29T08:07:26.229Z,99.90
2022-11-29T08:09:53.246Z,99.90
2022-11-29T08:15:06.465Z,99.90
2022-11-29T08:17:33.405Z,99.90
2022-11-29T08:20:03.996Z,99.90
2022-11-29T08:22:31.504Z,99.90
2022-11-29T08:24:59.948Z,99.90
2022-11-29T08:27:27.006Z,99.90
2022-11-29T08:29:53.857Z,99.90
2022-11-29T08:32:20.740Z,99.90
2022-11-29T08:34:47.910Z,99.90
2022-11-29T08:37:14.898Z,99.90
2022-11-29T08:39:42.031Z,99.90
2022-11-29T08:42:09.017Z,99.90
2022-11-29T08:44:35.913Z,99.90
2022-11-29T08:47:21.567Z,99.90
2022-11-29T08:50:03.667Z,99.90
2022-11-29T08:52:50.889Z,99.90
2022-11-29T08:55:20.007Z,99.90
2022-11-29T08:57:48.354Z,99.90
2022-11-29T09:00:16.088Z,99.90
2022-11-29T09:02:43.026Z,99.90
2022-11-29T09:05:11.060Z,99.90
2022-11-29T09:07:38.818Z,99.90
2022-11-29T09:10:08.428Z,99.90
2022-11-29T09:12:38.784Z,99.90
2022-11-29T09:15:07.676Z,99.90
2022-11-29T09:17:34.710Z,99.90
2022-11-29T09:20:01.687Z,99.90
2022-11-29T09:22:28.686Z,99.90
2022-11-29T09:24:55.894Z,99.90
2022-11-29T09:27:22.771Z,99.90
2022-11-29T09:29:52.718Z,99.90
2022-11-29T09:32:19.664Z,99.90
2022-11-29T09:34:46.770Z,99.90
2022-11-29T09:37:13.864Z,99.90
2022-11-29T09:39:41.680Z,99.90
2022-11-29T09:42:15.556Z,99.90
2022-11-29T09:44:48.682Z,99.90
2022-11-29T09:47:53.191Z,99.90
2022-11-29T09:50:43.204Z,99.90
2022-11-29T09:53:44.888Z,99.90
2022-11-29T09:56:32.048Z,99.90
2022-11-29T09:59:08.977Z,99.90
2022-11-29T10:01:40.166Z,99.90
2022-11-29T10:04:15.233Z,99.90
2022-11-29T10:07:04.346Z,99.90
2022-11-29T10:09:43.490Z,99.90
2022-11-29T10:12:18.545Z,99.90
2022-11-29T10:14:59.853Z,99.90
2022-11-29T10:17:26.818Z,99.90
2022-11-29T10:19:59.563Z,99.90
2022-11-29T10:23:23.244Z,99.80
2022-11-29T10:25:59.770Z,93.80
2022-11-29T10:28:31.366Z,73.10
2022-11-29T10:31:32.933Z,57.50
2022-11-29T10:34:02.399Z,45.30
2022-11-29T10:36:43.290Z,16.20
2022-11-29T10:39:26.302Z,7.30
2022-11-29T10:41:59.762Z,1.00
2022-11-29T10:44:27.710Z,1.00
2022-11-29T10:46:55.896Z,1.00
2022-11-29T10:49:27.361Z,1.00
2022-11-29T10:51:54.835Z,1.00
2022-11-29T10:54:42.526Z,1.00
2022-11-29T10:57:21.241Z,1.00
2022-11-29T11:00:12.323Z,1.00
2022-11-29T11:02:39.439Z,1.00
2022-11-29T11:05:18.850Z,1.00
2022-11-29T11:07:47.616Z,1.00
2022-11-29T11:10:30.929Z,1.00
2022-11-29T11:13:08.165Z,1.00
2022-11-29T11:15:35.303Z,1.00
2022-11-29T11:18:07.126Z,1.00
2022-11-29T11:20:38.059Z,1.00
2022-11-29T11:23:08.302Z,1.00
2022-11-29T11:25:39.060Z,1.00
2022-11-29T11:28:22.380Z,1.00
2022-11-29T11:31:02.135Z,1.00
2022-11-29T11:33:31.516Z,1.00
2022-11-29T11:36:17.291Z,1.00
2022-11-29T11:38:54.766Z,1.00
2022-11-29T11:41:52.177Z,1.00
2022-11-29T11:44:47.510Z,1.00
2022-11-29T11:47:21.792Z,1.00
2022-11-29T11:50:16.839Z,1.00
2022-11-29T11:52:50.640Z,1.00
2022-11-29T11:55:36.840Z,1.00
2022-11-29T11:58:14.024Z,1.00
2022-11-29T12:01:03.321Z,1.00
2022-11-29T12:03:50.001Z,1.00
2022-11-29T12:06:36.543Z,1.00
2022-11-29T12:09:19.933Z,1.00
2022-11-29T12:12:02.410Z,1.00
2022-11-29T12:15:00.481Z,1.00
2022-11-29T12:17:45.757Z,99.90
2022-11-29T12:20:26.196Z,99.90
2022-11-29T12:23:11.911Z,99.90
2022-11-29T12:25:48.037Z,99.90
2022-11-29T12:28:20.635Z,99.90
2022-11-29T12:30:59.901Z,99.90
2022-11-29T12:34:04.256Z,99.90
2022-11-29T12:37:13.544Z,99.90
2022-11-29T12:40:04.895Z,99.90
2022-11-29T12:42:43.781Z,99.90
2022-11-29T12:45:32.188Z,99.90
2022-11-29T12:48:35.692Z,99.90
2022-11-29T12:51:19.029Z,99.90
2022-11-29T12:53:59.682Z,99.90
2022-11-29T12:56:43.983Z,99.90
2022-11-29T12:59:17.269Z,99.90
2022-11-29T13:02:25.854Z,99.90
2022-11-29T13:05:09.674Z,99.90
2022-11-29T13:07:42.999Z,99.90
2022-11-29T13:10:26.587Z,99.90
2022-11-29T13:12:59.666Z,99.90
2022-11-29T13:15:52.240Z,99.90
2022-11-29T13:18:30.507Z,99.90
2022-11-29T13:21:04.623Z,99.90
2022-11-29T13:24:10.913Z,99.90
2022-11-29T13:26:42.071Z,99.90
2022-11-29T13:29:15.575Z,99.90
2022-11-29T13:31:43.813Z,99.90
2022-11-29T13:34:16.095Z,99.90
2022-11-29T13:37:04.078Z,99.90
2022-11-29T13:39:55.861Z,99.90
2022-11-29T13:42:28.256Z,99.90
2022-11-29T13:45:04.219Z,99.90
2022-11-29T13:47:31.385Z,99.90
2022-11-29T13:50:36.395Z,99.90
2022-11-29T13:53:17.253Z,99.90
2022-11-29T13:56:01.166Z,99.90
2022-11-29T13:58:28.121Z,99.90
2022-11-29T14:00:59.082Z,99.90
2022-11-29T14:03:32.789Z,99.90
2022-11-29T14:06:03.350Z,99.90
2022-11-29T14:09:10.861Z,99.90
2022-11-29T14:11:43.186Z,99.90
2022-11-29T14:14:28.224Z,99.90
2022-11-29T14:17:00.196Z,99.90
2022-11-29T14:19:34.075Z,99.90
2022-11-29T14:22:07.026Z,99.90
2022-11-29T14:24:37.079Z,99.90
2022-11-29T14:27:10.193Z,99.90
2022-11-29T14:29:49.597Z,99.90
2022-11-29T14:32:33.082Z,99.90
2022-11-29T14:35:11.974Z,99.90
2022-11-29T14:37:55.970Z,99.90
2022-11-29T14:40:41.638Z,99.90
2022-11-29T14:43:36.735Z,99.90
2022-11-29T14:46:15.682Z,99.90
2022-11-29T14:48:56.582Z,99.90
2022-11-29T14:51:26.142Z,99.90
2022-11-29T14:54:08.156Z,99.90
2022-11-29T14:56:39.023Z,99.90
2022-11-29T14:59:43.746Z,99.90
2022-11-29T15:02:26.067Z,99.90
2022-11-29T15:04:56.568Z,99.90
2022-11-29T15:07:33.261Z,99.90
2022-11-29T15:10:04.254Z,99.90
2022-11-29T15:12:36.675Z,99.90
2022-11-29T15:15:21.722Z,99.90
2022-11-29T15:18:20.085Z,99.90
2022-11-29T15:21:28.207Z,99.90
2022-11-29T15:24:09.291Z,99.90
2022-11-29T15:26:36.155Z,99.90
2022-11-29T15:29:18.396Z,99.90
2022-11-29T15:31:48.694Z,1.00
2022-11-29T15:34:33.795Z,1.00
2022-11-29T15:37:01.449Z,1.00
2022-11-29T15:39:36.708Z,1.00
2022-11-29T15:42:17.865Z,1.00
2022-11-29T15:44:46.267Z,1.00
2022-11-29T15:47:25.862Z,1.00
2022-11-29T15:49:55.299Z,1.00
2022-11-29T15:52:35.911Z,1.00
2022-11-29T15:55:06.563Z,1.00
2022-11-29T15:57:44.202Z,1.00
2022-11-29T16:00:20.467Z,1.00
2022-11-29T16:02:50.671Z,1.00
2022-11-29T16:05:26.522Z,1.00
2022-11-29T16:08:00.564Z,1.00
2022-11-29T16:10:43.723Z,1.00
2022-11-29T16:13:25.798Z,1.00
2022-11-29T16:16:13.732Z,1.00
2022-11-29T16:18:42.503Z,1.00
2022-11-29T16:21:27.344Z,1.00
2022-11-29T16:23:55.268Z,1.00
2022-11-29T16:26:34.929Z,1.00
2022-11-29T16:29:02.548Z,1.00
2022-11-29T16:31:37.872Z,1.00
2022-11-29T16:34:10.517Z,1.00
2022-11-29T16:36:37.517Z,1.00
2022-11-29T16:39:15.550Z,1.00
2022-11-29T16:41:42.643Z,1.00
2022-11-29T16:44:41.444Z,1.00
2022-11-29T16:47:23.466Z,1.00
2022-11-29T16:50:02.655Z,1.00
2022-11-29T16:52:32.154Z,1.00
2022-11-29T16:54:59.491Z,1.00
2022-11-29T16:57:28.548Z,1.00
2022-11-29T16:59:55.528Z,1.00
2022-11-29T17:02:22.668Z,1.00
2022-11-29T17:04:51.336Z,1.00
2022-11-29T17:07:30.919Z,1.00
2022-11-29T17:09:59.208Z,1.00
2022-11-29T17:12:26.099Z,1.00
2022-11-29T17:14:53.571Z,1.00
2022-11-29T17:17:20.619Z,1.00
2022-11-29T17:19:47.536Z,1.00
2022-11-29T17:22:14.688Z,1.00
2022-11-29T17:24:46.382Z,1.00
2022-11-29T17:27:15.003Z,1.00
2022-11-29T17:29:42.888Z,1.00
2022-11-29T17:32:10.427Z,1.00
2022-11-29T17:34:37.700Z,1.00
2022-11-29T17:37:05.171Z,1.00
2022-11-29T17:39:32.798Z,1.00
2022-11-29T17:42:03.417Z,1.00
2022-11-29T17:44:30.372Z,1.00
2022-11-29T17:47:49.848Z,1.00
2022-11-29T17:51:17.466Z,1.00
2022-11-29T17:53:55.038Z,1.00
2022-11-29T17:56:48.932Z,1.00
2022-11-29T17:59:26.449Z,1.00
2022-11-29T18:01:53.934Z,1.00
2022-11-29T18:04:21.200Z,1.00
2022-11-29T18:06:51.367Z,1.00
2022-11-29T18:09:19.695Z,1.00
2022-11-29T18:11:49.694Z,1.00
2022-11-29T18:14:28.525Z,1.00
2022-11-29T18:16:56.112Z,1.00
2022-11-29T18:19:24.038Z,1.00
2022-11-29T18:21:51.576Z,1.00
2022-11-29T18:24:19.171Z,1.00
2022-11-29T18:26:46.943Z,1.00
2022-11-29T18:29:16.956Z,1.00
2022-11-29T18:31:46.131Z,1.00
2022-11-29T18:34:49.574Z,1.00
2022-11-29T18:37:33.731Z,1.00
2022-11-29T18:40:28.403Z,1.00
2022-11-29T18:54:50.074Z,1.00
2022-11-29T18:58:09.996Z,1.00
2022-11-29T19:00:37.895Z,1.00
2022-11-29T19:03:20.125Z,1.00
2022-11-29T19:08:49.791Z,1.00
2022-11-29T19:11:21.951Z,1.00
2022-11-29T19:14:00.248Z,1.00
2022-11-29T19:16:29.748Z,3.00
2022-11-29T19:18:59.301Z,12.10
2022-11-29T19:21:28.481Z,10.90
2022-11-29T19:27:26.315Z,23.10
2022-11-29T19:29:53.709Z,26.00
2022-11-29T19:32:39.931Z,23.80
2022-11-29T19:35:10.305Z,24.90
2022-11-29T19:38:53.148Z,29.80
2022-11-29T19:41:27.342Z,41.40
2022-11-29T19:44:01.160Z,51.80
2022-11-29T19:49:50.782Z,55.60
2022-11-29T19:52:44.428Z,58.30
2022-11-29T19:55:11.790Z,64.40
2022-11-29T19:57:51.452Z,64.10
2022-11-29T20:00:19.595Z,63.50
2022-11-29T20:03:02.145Z,43.00
2022-11-29T20:09:29.939Z,35.30
2022-11-29T20:12:32.973Z,49.20
2022-11-29T20:15:31.300Z,53.80
2022-11-29T20:18:57.508Z,54.90
2022-11-29T20:22:31.807Z,40.60
2022-11-29T20:32:34.755Z,31.80
2022-11-29T20:35:02.669Z,17.90
2022-11-29T20:37:44.552Z,13.20
2022-11-29T20:40:18.150Z,1.00
2022-11-29T20:43:08.663Z,1.00
2022-11-29T20:46:28.492Z,1.00
2022-11-29T20:48:58.447Z,1.00
2022-11-29T20:52:25.873Z,1.00
2022-11-29T20:54:53.023Z,1.00
2022-11-29T20:57:29.000Z,1.00
2022-11-29T20:59:56.102Z,1.00
2022-11-29T21:02:35.635Z,1.00
2022-11-29T21:05:02.866Z,1.00
2022-11-29T21:07:42.619Z,1.00
2022-11-29T21:10:10.478Z,1.00
2022-11-29T21:13:07.499Z,1.00
2022-11-29T21:15:37.653Z,1.00
2022-11-29T21:18:06.079Z,1.00
2022-11-29T21:20:37.012Z,1.00
2022-11-29T21:27:19.788Z,1.00
2022-11-29T21:42:55.984Z,5.00
2022-11-29T21:45:59.208Z,5.30
2022-11-29T21:48:59.958Z,3.70
2022-11-29T22:02:45.688Z,7.40
2022-11-29T22:06:05.448Z,1.00
2022-11-29T22:09:39.161Z,3.70
2022-11-29T22:12:32.517Z,1.00
2022-11-29T22:14:59.182Z,1.00
2022-11-29T22:17:26.204Z,1.30
2022-11-29T22:19:53.403Z,5.60
2022-11-29T22:22:28.123Z,2.50
2022-11-29T22:24:55.499Z,1.00
2022-11-29T22:27:22.750Z,3.30
2022-11-29T22:30:47.431Z,17.50
2022-11-29T22:33:34.672Z,15.70
2022-11-29T22:36:29.469Z,2.70
2022-11-29T22:39:26.037Z,4.40
2022-11-29T22:55:05.220Z,15.10
2022-11-29T22:58:10.025Z,27.60
2022-11-29T23:00:42.763Z,33.60
2022-11-29T23:03:43.846Z,40.70
2022-11-29T23:07:22.536Z,52.20
2022-11-29T23:17:48.760Z,32.40
2022-11-29T23:20:15.934Z,33.10
2022-11-29T23:22:43.116Z,35.40
2022-11-29T23:25:25.657Z,49.20
2022-11-29T23:26:25.918Z,53.60
2022-11-29T23:27:54.743Z,57.30
2022-11-29T23:30:21.827Z,69.70
2022-11-29T23:32:48.938Z,76.70
2022-11-29T23:35:16.204Z,94.40
2022-11-29T23:37:43.558Z,91.70
2022-11-29T23:40:11.176Z,95.80
2022-11-29T23:42:39.205Z,98.60
2022-11-29T23:45:08.640Z,99.20
2022-11-29T23:47:41.422Z,90.70
2022-11-29T23:50:32.056Z,85.10
2022-11-29T23:53:08.833Z,70.40
2022-11-29T23:56:17.453Z,74.60
2022-11-29T23:59:16.481Z,79.40
